UDYZ/EVN METAR and TAF weather

Enter ICAO airport designator
Station Type Date Time Source
UDYZ METAR 2020/10/29 17:00 UTC NOAA

UDYZ 291700Z VRB01KT 9999 NSC 10/03 Q1021 R09/010070 NOSIG


Station Type Date Time Source
UDYZ Decoded METAR 2020/10/29 17:00 UTC NOAA

Station name not available
Oct 29, 2020 - 01:00 PM EDT / 2020.10.29 1700 UTC
Wind: Variable at 1 MPH (1 KT):0
Visibility: greater than 7 mile(s):0
Temperature: 50 F (10 C)
Dew Point: 37 F (3 C)
Relative Humidity: 61%
Pressure (altimeter): 30.15 in. Hg (1021 hPa)
ob: UDYZ 291700Z VRB01KT 9999 NSC 10/03 Q1021 R09/010070 NOSIG
cycle: 17

Station Type Date Time Source
UDYZ TAF 2020/10/29 18:00 UTC NOAA

TAF UDYZ 291706Z 2918/3018 VRB06KT CAVOK

Example: see airport list